createdAt,value
2019-05-15T00:02:21.028Z,1.70
2019-05-15T00:04:49.343Z,1.90
2019-05-15T00:07:18.288Z,2.37
2019-05-15T00:09:48.965Z,1.97
2019-05-15T00:12:18.761Z,2.30
2019-05-15T00:14:48.493Z,1.80
2019-05-15T00:17:18.990Z,1.70
2019-05-15T00:19:48.557Z,1.67
2019-05-15T00:22:18.351Z,1.87
2019-05-15T00:24:48.683Z,1.97
2019-05-15T00:27:16.765Z,1.80
2019-05-15T00:29:45.058Z,1.80
2019-05-15T00:32:13.298Z,2.23
2019-05-15T00:34:41.512Z,1.53
2019-05-15T00:37:09.787Z,1.60
2019-05-15T00:39:39.081Z,2.07
2019-05-15T00:42:08.275Z,2.03
2019-05-15T00:44:38.732Z,1.70
2019-05-15T00:47:10.230Z,1.77
2019-05-15T00:49:38.263Z,2.10
2019-05-15T00:52:11.748Z,1.90
2019-05-15T00:54:38.745Z,2.00
2019-05-15T00:57:08.512Z,1.70
2019-05-15T00:59:38.813Z,1.70
2019-05-15T01:02:08.554Z,1.80
2019-05-15T01:04:38.729Z,2.20
2019-05-15T01:07:08.344Z,2.13
2019-05-15T01:09:38.391Z,2.27
2019-05-15T01:12:08.869Z,1.80
2019-05-15T01:14:38.435Z,2.10
2019-05-15T01:17:06.201Z,2.00
2019-05-15T01:19:34.470Z,1.80
2019-05-15T01:22:02.777Z,1.80
2019-05-15T01:24:31.071Z,1.90
2019-05-15T01:26:59.419Z,2.10
2019-05-15T01:29:40.517Z,1.90
2019-05-15T01:31:59.273Z,1.73
2019-05-15T01:34:29.409Z,1.87
2019-05-15T01:36:59.126Z,1.87
2019-05-15T01:39:29.098Z,1.87
2019-05-15T01:41:58.514Z,1.90
2019-05-15T01:44:28.755Z,1.90
2019-05-15T01:46:58.963Z,1.90
2019-05-15T01:49:28.009Z,2.00
2019-05-15T01:51:58.480Z,1.80
2019-05-15T01:54:28.678Z,1.80
2019-05-15T01:56:58.557Z,2.23
2019-05-15T01:59:28.232Z,2.03
2019-05-15T02:01:58.883Z,1.70
2019-05-15T02:04:28.804Z,1.67
2019-05-15T02:06:58.734Z,2.03
2019-05-15T02:09:28.057Z,1.93
2019-05-15T02:11:58.071Z,2.10
2019-05-15T02:14:28.330Z,2.37
2019-05-15T02:16:55.979Z,2.13
2019-05-15T02:19:24.252Z,2.23
2019-05-15T02:21:52.508Z,1.63
2019-05-15T02:24:20.792Z,1.90
2019-05-15T02:26:49.131Z,2.10
2019-05-15T02:29:24.231Z,2.23
2019-05-15T02:31:50.287Z,2.47
2019-05-15T02:34:19.484Z,2.33
2019-05-15T02:36:49.277Z,1.90
2019-05-15T02:39:18.951Z,2.40
2019-05-15T02:41:49.138Z,2.27
2019-05-15T02:44:19.929Z,2.43
2019-05-15T02:46:50.041Z,1.97
2019-05-15T02:49:19.180Z,2.50
2019-05-15T02:51:49.355Z,2.00
2019-05-15T02:54:19.695Z,2.30
2019-05-15T02:56:49.540Z,2.30
2019-05-15T02:59:19.402Z,2.10
2019-05-15T03:01:49.404Z,2.10
2019-05-15T03:04:19.910Z,2.17
2019-05-15T03:06:49.659Z,2.30
2019-05-15T03:09:18.800Z,2.07
2019-05-15T03:11:49.367Z,2.37
2019-05-15T03:14:16.981Z,2.17
2019-05-15T03:16:45.254Z,1.90
2019-05-15T03:19:13.511Z,2.13
2019-05-15T03:21:41.782Z,1.80
2019-05-15T03:24:10.467Z,2.00
2019-05-15T03:26:39.514Z,1.80
2019-05-15T03:29:09.836Z,1.67
2019-05-15T03:31:56.699Z,2.87
2019-05-15T03:34:19.310Z,1.90
2019-05-15T03:36:44.344Z,2.00
2019-05-15T03:39:09.694Z,1.97
2019-05-15T03:41:39.272Z,2.00
2019-05-15T03:44:09.518Z,2.00
2019-05-15T03:46:39.833Z,2.30
2019-05-15T03:49:08.668Z,2.00
2019-05-15T03:51:41.006Z,2.23
2019-05-15T03:54:09.382Z,1.90
2019-05-15T03:56:39.423Z,2.00
2019-05-15T03:59:09.415Z,2.10
2019-05-15T04:01:42.357Z,1.97
2019-05-15T04:04:09.612Z,1.70
2019-05-15T04:06:39.171Z,2.60
2019-05-15T04:09:09.541Z,2.40
2019-05-15T04:11:38.802Z,1.97
2019-05-15T04:14:09.880Z,1.70
2019-05-15T04:16:39.029Z,2.00
2019-05-15T04:19:09.384Z,2.00
2019-05-15T04:21:41.237Z,2.20
2019-05-15T04:24:09.517Z,1.87
2019-05-15T04:26:39.496Z,2.00
2019-05-15T04:29:09.714Z,2.20
2019-05-15T04:31:51.683Z,2.33
2019-05-15T04:34:09.213Z,2.30
2019-05-15T04:36:39.102Z,2.20
2019-05-15T04:39:09.877Z,2.03
2019-05-15T04:41:39.304Z,2.17
2019-05-15T04:44:10.003Z,2.57
2019-05-15T04:46:39.196Z,2.50
2019-05-15T04:49:09.197Z,2.10
2019-05-15T04:51:39.082Z,1.83
2019-05-15T04:54:09.578Z,2.10
2019-05-15T04:56:40.031Z,2.00
2019-05-15T04:59:10.226Z,2.07
2019-05-15T05:01:40.190Z,2.07
2019-05-15T05:04:09.390Z,2.13
2019-05-15T05:06:38.710Z,2.13
2019-05-15T05:09:09.189Z,2.10
2019-05-15T05:11:38.296Z,2.43
2019-05-15T05:14:08.497Z,2.27
2019-05-15T05:16:39.397Z,1.93
2019-05-15T05:19:08.951Z,2.00
2019-05-15T05:21:38.509Z,1.80
2019-05-15T05:24:08.060Z,2.00
2019-05-15T05:26:38.290Z,1.70
2019-05-15T05:29:08.324Z,2.20
2019-05-15T05:31:38.872Z,2.17
2019-05-15T05:34:08.177Z,1.80
2019-05-15T05:36:38.448Z,1.73
2019-05-15T05:39:09.057Z,2.10
2019-05-15T05:41:39.009Z,1.97
2019-05-15T05:44:08.144Z,1.93
2019-05-15T05:46:36.573Z,2.03
2019-05-15T05:49:05.137Z,1.93
2019-05-15T05:51:33.485Z,1.93
2019-05-15T05:54:01.831Z,2.20
2019-05-15T05:56:30.162Z,2.23
2019-05-15T05:58:58.668Z,2.60
2019-05-15T06:01:28.257Z,2.00
2019-05-15T06:03:58.339Z,1.83
2019-05-15T06:06:29.104Z,1.80
2019-05-15T06:08:58.411Z,1.93
2019-05-15T06:11:27.781Z,2.03
2019-05-15T06:13:58.393Z,1.90
2019-05-15T06:16:28.217Z,2.20
2019-05-15T06:18:58.464Z,1.70
2019-05-15T06:21:28.384Z,2.23
2019-05-15T06:23:58.207Z,2.00
2019-05-15T06:26:28.139Z,1.97
2019-05-15T06:28:58.116Z,1.80
2019-05-15T06:31:27.979Z,1.97
2019-05-15T06:33:57.937Z,1.83
2019-05-15T06:36:25.766Z,1.47
2019-05-15T06:38:54.066Z,1.50
2019-05-15T06:41:22.315Z,1.73
2019-05-15T06:43:50.658Z,1.63
2019-05-15T06:46:18.968Z,1.50
2019-05-15T06:48:48.639Z,1.57
2019-05-15T06:51:18.289Z,1.33
2019-05-15T06:53:48.917Z,2.13
2019-05-15T06:56:18.732Z,1.40
2019-05-15T06:58:48.497Z,1.70
2019-05-15T07:01:18.665Z,2.03
2019-05-15T07:03:48.423Z,1.60
2019-05-15T07:06:18.150Z,1.73
2019-05-15T07:08:49.292Z,1.30
2019-05-15T07:11:16.127Z,1.70
2019-05-15T07:13:44.354Z,1.60
2019-05-15T07:16:12.607Z,1.50
2019-05-15T07:18:40.860Z,1.53
2019-05-15T07:21:10.214Z,1.70
2019-05-15T07:23:38.998Z,1.60
2019-05-15T07:26:09.406Z,1.50
2019-05-15T07:28:37.974Z,1.40
2019-05-15T07:31:11.238Z,1.60
2019-05-15T07:33:42.573Z,1.47
2019-05-15T07:36:08.417Z,1.43
2019-05-15T07:38:38.931Z,1.10
2019-05-15T07:41:09.390Z,1.10
2019-05-15T07:43:38.322Z,1.40
2019-05-15T07:46:08.360Z,1.20
2019-05-15T07:48:38.263Z,1.30
2019-05-15T07:51:11.048Z,1.30
2019-05-15T07:53:38.323Z,1.20
2019-05-15T07:56:05.914Z,1.20
2019-05-15T07:58:34.187Z,1.40
2019-05-15T08:01:05.374Z,1.50
2019-05-15T08:03:32.390Z,1.27
2019-05-15T08:06:03.079Z,1.40
2019-05-15T08:08:30.650Z,1.30
2019-05-15T08:10:58.978Z,1.23
2019-05-15T08:13:28.949Z,1.60
2019-05-15T08:15:58.019Z,1.27
2019-05-15T08:18:28.431Z,1.43
2019-05-15T08:20:58.645Z,1.30
2019-05-15T08:23:28.442Z,1.50
2019-05-15T08:25:57.900Z,1.47
2019-05-15T08:28:28.568Z,1.40
2019-05-15T08:30:58.281Z,1.20
2019-05-15T08:33:28.025Z,1.50
2019-05-15T08:35:58.613Z,1.10
2019-05-15T08:38:28.571Z,1.30
2019-05-15T08:40:56.119Z,1.27
2019-05-15T08:43:24.350Z,1.23
2019-05-15T08:45:52.605Z,1.10
2019-05-15T08:48:20.929Z,1.30
2019-05-15T08:50:49.239Z,1.20
2019-05-15T08:53:19.388Z,1.20
2019-05-15T08:55:48.329Z,1.20
2019-05-15T08:58:20.368Z,1.20
2019-05-15T09:00:51.770Z,1.30
2019-05-15T09:03:18.329Z,1.40
2019-05-15T09:05:48.441Z,1.40
2019-05-15T09:08:19.310Z,1.33
2019-05-15T09:10:49.831Z,1.30
2019-05-15T09:13:18.828Z,1.20
2019-05-15T09:15:48.283Z,1.30
2019-05-15T09:18:19.668Z,1.10
2019-05-15T09:20:48.991Z,1.17
2019-05-15T09:23:19.458Z,1.20
2019-05-15T09:25:49.186Z,2.00
2019-05-15T09:28:18.896Z,1.50
2019-05-15T09:30:48.332Z,1.30
2019-05-15T09:33:16.224Z,1.30
2019-05-15T09:35:44.486Z,1.40
2019-05-15T09:38:12.782Z,1.30
2019-05-15T09:40:46.205Z,1.50
2019-05-15T09:43:11.553Z,1.40
2019-05-15T09:45:39.907Z,1.50
2019-05-15T09:48:10.129Z,1.40
2019-05-15T09:50:39.658Z,1.20
2019-05-15T09:53:09.289Z,1.30
2019-05-15T09:55:38.180Z,1.40
2019-05-15T09:58:08.350Z,1.33
2019-05-15T10:00:38.745Z,1.70
2019-05-15T10:03:09.356Z,1.70
2019-05-15T10:05:38.799Z,1.47
2019-05-15T10:08:08.971Z,1.60
2019-05-15T10:10:37.986Z,1.57
2019-05-15T10:13:08.856Z,1.60
2019-05-15T10:15:39.018Z,1.67
2019-05-15T10:18:09.777Z,1.40
2019-05-15T10:20:36.446Z,1.60
2019-05-15T10:23:04.681Z,1.50
2019-05-15T10:25:32.938Z,1.30
2019-05-15T10:28:01.243Z,1.40
2019-05-15T10:30:29.572Z,1.60
2019-05-15T10:32:57.871Z,1.90
2019-05-15T10:35:31.074Z,1.80
2019-05-15T10:37:56.041Z,1.57
2019-05-15T10:40:24.289Z,1.37
2019-05-15T10:42:52.520Z,1.30
2019-05-15T10:45:20.857Z,1.30
2019-05-15T10:47:49.760Z,1.43
2019-05-15T10:50:19.044Z,1.33
2019-05-15T10:52:48.953Z,1.47
2019-05-15T10:55:18.913Z,1.57
2019-05-15T10:57:47.424Z,1.50
2019-05-15T11:00:19.407Z,1.50
2019-05-15T11:02:48.924Z,1.40
2019-05-15T11:05:17.990Z,1.40
2019-05-15T11:07:48.290Z,1.60
2019-05-15T11:10:18.566Z,1.60
2019-05-15T11:12:47.097Z,1.77
2019-05-15T11:15:18.195Z,1.60
2019-05-15T11:17:45.740Z,1.70
2019-05-15T11:20:14.410Z,1.50
2019-05-15T11:22:43.105Z,1.67
2019-05-15T11:25:13.001Z,1.67
2019-05-15T11:27:41.352Z,1.60
2019-05-15T11:30:10.038Z,1.40
2019-05-15T11:32:39.155Z,1.50
2019-05-15T11:35:08.003Z,1.50
2019-05-15T11:37:44.055Z,1.70
2019-05-15T11:40:10.135Z,1.50
2019-05-15T11:42:39.443Z,1.50
2019-05-15T11:45:07.975Z,1.50
2019-05-15T11:47:39.054Z,1.60
2019-05-15T11:50:08.407Z,1.50
2019-05-15T11:52:39.497Z,1.73
2019-05-15T11:55:08.321Z,1.60
2019-05-15T11:57:43.507Z,1.63
2019-05-15T12:00:15.111Z,1.77
2019-05-15T12:02:38.660Z,1.57
2019-05-15T12:05:09.181Z,1.50
2019-05-15T12:07:38.167Z,1.50
2019-05-15T12:10:10.358Z,1.53
2019-05-15T12:12:38.597Z,1.73
2019-05-15T12:15:07.453Z,1.63
2019-05-15T12:17:35.664Z,1.67
2019-05-15T12:20:06.577Z,1.67
2019-05-15T12:22:34.635Z,1.90
2019-05-15T12:25:03.424Z,1.63
2019-05-15T12:27:31.775Z,1.77
2019-05-15T12:30:00.117Z,1.60
2019-05-15T12:35:00.082Z,1.67
2019-05-15T12:37:28.721Z,1.70
2019-05-15T12:59:58.219Z,1.80
2019-05-15T13:02:28.079Z,1.67
2019-05-15T13:04:56.533Z,1.70
2019-05-15T13:07:24.800Z,1.70
2019-05-15T13:09:53.053Z,1.43
2019-05-15T13:12:21.369Z,1.60
2019-05-15T13:14:49.602Z,1.60
2019-05-15T13:17:18.417Z,1.57
2019-05-15T13:19:48.316Z,1.97
2019-05-15T13:22:20.589Z,1.70
2019-05-15T13:24:48.266Z,1.80
2019-05-15T13:27:18.233Z,1.63
2019-05-15T13:29:48.648Z,1.63
2019-05-15T13:32:16.588Z,1.73
2019-05-15T13:34:44.819Z,2.03
2019-05-15T13:37:26.455Z,1.97
2019-05-15T13:39:43.020Z,1.40
2019-05-15T13:42:11.262Z,1.80
2019-05-15T13:44:39.523Z,1.73
2019-05-15T13:47:08.684Z,1.80
2019-05-15T13:49:38.619Z,1.90
2019-05-15T13:52:08.535Z,1.90
2019-05-15T13:54:37.920Z,1.83
2019-05-15T13:57:08.619Z,1.80
2019-05-15T13:59:38.877Z,2.13
2019-05-15T14:02:08.497Z,1.90
2019-05-15T14:04:38.640Z,1.80
2019-05-15T14:07:08.393Z,1.90
2019-05-15T14:09:43.448Z,1.83
2019-05-15T14:12:11.740Z,1.80
2019-05-15T14:14:38.411Z,2.00
2019-05-15T14:17:05.917Z,1.70
2019-05-15T14:19:34.208Z,1.90
2019-05-15T14:22:02.471Z,1.90
2019-05-15T14:24:30.807Z,1.80
2019-05-15T14:26:59.455Z,1.70
2019-05-15T14:29:29.211Z,2.07
2019-05-15T14:31:58.469Z,1.70
2019-05-15T14:34:28.919Z,1.80
2019-05-15T14:36:58.696Z,1.90
2019-05-15T14:39:26.704Z,2.30
2019-05-15T14:41:54.951Z,1.80
2019-05-15T14:44:23.210Z,1.87
2019-05-15T14:46:51.523Z,1.60
2019-05-15T14:49:19.883Z,1.90
2019-05-15T14:51:48.549Z,2.20
2019-05-15T14:54:18.325Z,2.03
2019-05-15T14:56:48.606Z,1.90
2019-05-15T14:59:16.616Z,1.83
2019-05-15T15:01:44.941Z,1.70
2019-05-15T15:04:13.255Z,1.97
2019-05-15T15:06:41.590Z,1.73
2019-05-15T15:09:09.905Z,2.00
2019-05-15T15:11:38.667Z,1.83
2019-05-15T15:14:08.566Z,1.83
2019-05-15T15:16:38.462Z,1.80
2019-05-15T15:19:06.964Z,1.90
2019-05-15T15:21:35.317Z,1.80
2019-05-15T15:24:03.635Z,2.17
2019-05-15T15:26:31.967Z,1.73
2019-05-15T15:29:00.296Z,1.87
2019-05-15T15:31:29.008Z,1.90
2019-05-15T15:33:57.957Z,2.00
2019-05-15T15:36:28.530Z,1.70
2019-05-15T15:38:58.653Z,1.70
2019-05-15T15:41:28.554Z,1.83
2019-05-15T15:43:58.202Z,1.80
2019-05-15T15:46:28.494Z,1.70
2019-05-15T15:48:58.739Z,1.90
2019-05-15T15:51:28.412Z,2.30
2019-05-15T15:53:56.237Z,2.10
2019-05-15T15:56:24.494Z,1.87
2019-05-15T15:58:52.803Z,1.90
2019-05-15T16:01:24.560Z,1.50
2019-05-15T16:03:51.779Z,2.30
2019-05-15T16:06:20.111Z,1.90
2019-05-15T16:08:55.109Z,1.90
2019-05-15T16:11:18.807Z,2.00
2019-05-15T16:13:49.507Z,2.10
2019-05-15T16:16:17.942Z,1.73
2019-05-15T16:18:48.941Z,1.90
2019-05-15T16:21:19.125Z,1.80
2019-05-15T16:23:48.087Z,1.63
2019-05-15T16:26:19.294Z,2.00
2019-05-15T16:28:46.160Z,1.77
2019-05-15T16:31:14.505Z,1.93
2019-05-15T16:33:42.826Z,1.83
2019-05-15T16:36:11.151Z,2.00
2019-05-15T16:38:39.578Z,1.60
2019-05-15T16:41:08.962Z,1.67
2019-05-15T16:43:37.890Z,1.87
2019-05-15T16:46:08.958Z,1.70
2019-05-15T16:48:38.794Z,1.60
2019-05-15T16:51:08.964Z,1.70
2019-05-15T16:53:38.157Z,1.53
2019-05-15T16:56:06.031Z,2.03
2019-05-15T16:58:34.320Z,1.67
2019-05-15T17:01:02.642Z,1.73
2019-05-15T17:03:30.968Z,1.70
2019-05-15T17:05:59.264Z,2.10
2019-05-15T17:08:28.550Z,1.93
2019-05-15T17:10:58.650Z,1.70
2019-05-15T17:13:28.769Z,1.60
2019-05-15T17:15:58.442Z,1.90
2019-05-15T17:18:26.954Z,1.60
2019-05-15T17:20:55.312Z,1.60
2019-05-15T17:23:23.636Z,1.80
2019-05-15T17:25:52.185Z,1.67
2019-05-15T17:28:20.511Z,1.77
2019-05-15T17:30:48.965Z,1.63
2019-05-15T17:33:18.426Z,1.60
2019-05-15T17:35:48.753Z,1.97
2019-05-15T17:38:18.250Z,2.10
2019-05-15T17:40:48.419Z,1.77
2019-05-15T17:43:18.257Z,1.77
2019-05-15T17:45:48.223Z,2.37
2019-05-15T17:48:19.355Z,2.07
2019-05-15T17:50:51.761Z,2.20
2019-05-15T17:53:18.138Z,2.30
2019-05-15T17:55:47.924Z,1.97
2019-05-15T17:58:16.436Z,2.10
2019-05-15T18:00:44.849Z,2.00
2019-05-15T18:03:15.027Z,1.90
2019-05-15T18:05:43.217Z,2.00
2019-05-15T18:08:11.441Z,2.40
2019-05-15T18:10:39.617Z,2.40
2019-05-15T18:13:08.921Z,2.20
2019-05-15T18:15:38.557Z,2.37
2019-05-15T18:18:09.651Z,2.30
2019-05-15T18:20:38.325Z,2.30
2019-05-15T18:23:08.502Z,2.40
2019-05-15T18:25:38.344Z,2.40
2019-05-15T18:28:08.880Z,2.43
2019-05-15T18:30:38.960Z,2.20
2019-05-15T18:33:08.752Z,2.50
2019-05-15T18:35:38.507Z,2.63
2019-05-15T18:38:08.572Z,3.93
2019-05-15T18:40:38.393Z,2.60
2019-05-15T18:43:09.792Z,3.20
2019-05-15T18:45:38.338Z,6.00
2019-05-15T18:48:06.680Z,3.60
2019-05-15T18:50:37.795Z,2.97
2019-05-15T18:53:08.686Z,3.20
2019-05-15T18:55:38.415Z,2.80
2019-05-15T18:58:05.604Z,2.50
2019-05-15T19:00:36.181Z,2.57
2019-05-15T19:03:18.271Z,3.20
2019-05-15T19:05:34.297Z,4.03
2019-05-15T19:08:02.476Z,3.83
2019-05-15T19:10:30.658Z,3.40
2019-05-15T19:12:59.846Z,2.17
2019-05-15T19:15:28.705Z,2.47
2019-05-15T19:17:58.592Z,2.30
2019-05-15T19:20:28.060Z,2.40
2019-05-15T19:22:58.714Z,2.43
2019-05-15T19:25:28.625Z,2.33
2019-05-15T19:27:57.000Z,2.60
2019-05-15T19:30:25.279Z,2.10
2019-05-15T19:32:53.550Z,2.20
2019-05-15T19:35:21.833Z,2.30
2019-05-15T19:37:50.000Z,2.47
2019-05-15T19:40:18.676Z,1.90
2019-05-15T19:42:48.746Z,2.23
2019-05-15T19:45:17.109Z,2.57
2019-05-15T19:47:47.479Z,2.37
2019-05-15T19:50:18.105Z,2.30
2019-05-15T19:52:47.870Z,2.33
2019-05-15T19:55:17.681Z,1.70
2019-05-15T19:57:46.830Z,2.30
2019-05-15T20:00:18.772Z,2.30
2019-05-15T20:02:48.599Z,2.00
2019-05-15T20:05:18.295Z,2.00
2019-05-15T20:07:47.989Z,2.10
2019-05-15T20:10:18.302Z,1.90
2019-05-15T20:12:47.995Z,1.90
2019-05-15T20:15:18.832Z,1.80
2019-05-15T20:17:47.823Z,2.03
2019-05-15T20:20:18.245Z,1.90
2019-05-15T20:22:46.319Z,2.00
2019-05-15T20:25:14.692Z,2.20
2019-05-15T20:27:43.865Z,1.80
2019-05-15T20:30:12.414Z,1.80
2019-05-15T20:32:40.589Z,2.07
2019-05-15T20:35:09.014Z,2.37
2019-05-15T20:37:39.104Z,1.90
2019-05-15T20:40:09.135Z,2.13
2019-05-15T20:42:38.051Z,2.30
2019-05-15T20:45:11.231Z,1.77
2019-05-15T20:47:38.808Z,1.77
2019-05-15T20:50:08.623Z,1.97
2019-05-15T20:52:39.326Z,1.97
2019-05-15T20:55:07.974Z,1.73
2019-05-15T20:57:38.476Z,2.10
2019-05-15T21:00:08.100Z,1.90
2019-05-15T21:02:37.968Z,2.00
2019-05-15T21:05:08.815Z,1.93
2019-05-15T21:07:42.148Z,1.77
2019-05-15T21:10:08.492Z,1.70
2019-05-15T21:12:36.528Z,1.90
2019-05-15T21:15:05.407Z,1.80
2019-05-15T21:17:33.659Z,1.50
2019-05-15T21:20:01.873Z,1.80
2019-05-15T21:22:30.178Z,1.87
2019-05-15T21:24:58.339Z,1.70
2019-05-15T21:27:31.828Z,1.90
2019-05-15T21:29:58.653Z,2.27
2019-05-15T21:32:28.514Z,2.10
2019-05-15T21:34:58.289Z,1.93
2019-05-15T21:37:27.498Z,1.90
2019-05-15T21:39:58.824Z,1.90
2019-05-15T21:42:27.073Z,2.00
2019-05-15T21:44:55.277Z,1.97
2019-05-15T21:47:23.724Z,1.90
2019-05-15T21:49:51.904Z,1.93
2019-05-15T21:52:20.684Z,1.70
2019-05-15T21:54:50.501Z,1.83
2019-05-15T21:57:32.381Z,1.60
2019-05-15T21:59:48.702Z,1.70
2019-05-15T22:02:18.225Z,1.97
2019-05-15T22:04:55.455Z,2.00
2019-05-15T22:07:18.151Z,2.00
2019-05-15T22:09:48.594Z,1.60
2019-05-15T22:12:18.435Z,1.90
2019-05-15T22:14:49.194Z,2.10
2019-05-15T22:17:18.928Z,1.77
2019-05-15T22:19:48.942Z,1.67
2019-05-15T22:22:17.968Z,1.53
2019-05-15T22:24:48.234Z,1.70
2019-05-15T22:27:18.064Z,1.80
2019-05-15T22:29:48.080Z,1.67
2019-05-15T22:32:18.289Z,1.63
2019-05-15T22:34:48.115Z,2.03
2019-05-15T22:37:17.888Z,1.87
2019-05-15T22:39:45.809Z,1.70
2019-05-15T22:42:14.399Z,1.70
2019-05-15T22:44:42.641Z,2.30
2019-05-15T22:47:10.925Z,1.77
2019-05-15T22:49:39.203Z,1.70
2019-05-15T22:52:08.616Z,1.80
2019-05-15T22:54:38.675Z,2.53
2019-05-15T22:57:07.122Z,1.63
2019-05-15T22:59:35.457Z,2.00
2019-05-15T23:02:03.761Z,1.70
2019-05-15T23:04:32.122Z,1.90
2019-05-15T23:07:00.422Z,1.90
2019-05-15T23:09:28.772Z,1.83
2019-05-15T23:11:58.890Z,2.00
2019-05-15T23:14:28.735Z,2.33
2019-05-15T23:16:59.002Z,2.00
2019-05-15T23:19:28.065Z,1.93
2019-05-15T23:21:59.070Z,2.00
2019-05-15T23:24:28.210Z,2.20
2019-05-15T23:26:58.269Z,2.07
2019-05-15T23:29:26.406Z,1.80
2019-05-15T23:31:54.724Z,1.70
2019-05-15T23:34:22.958Z,2.40
2019-05-15T23:36:51.187Z,2.13
2019-05-15T23:39:19.479Z,2.33
2019-05-15T23:41:47.719Z,1.90
2019-05-15T23:44:18.236Z,2.20
2019-05-15T23:46:45.998Z,1.67
2019-05-15T23:49:14.300Z,2.00
2019-05-15T23:51:42.638Z,2.13
2019-05-15T23:54:10.993Z,1.87
2019-05-15T23:56:39.304Z,2.07
2019-05-15T23:59:08.411Z,2.03
